sensor_id;sensor_type;location;lat;lon;timestamp;pressure;altitude;pressure_sealevel;temperature;humidity
71149;BME280;59072;42.144;25.200;2023-05-02T00:00:32;100594.22;;;11.91;69.51
71149;BME280;59072;42.144;25.200;2023-05-02T00:02:57;100601.56;;;12.02;69.02
71149;BME280;59072;42.144;25.200;2023-05-02T00:05:24;100613.34;;;12.26;67.12
71149;BME280;59072;42.144;25.200;2023-05-02T00:07:51;100606.03;;;12.08;66.87
71149;BME280;59072;42.144;25.200;2023-05-02T00:10:17;100605.59;;;12.11;66.38
71149;BME280;59072;42.144;25.200;2023-05-02T00:12:42;100609.47;;;12.15;65.55
71149;BME280;59072;42.144;25.200;2023-05-02T00:15:08;100591.78;;;11.89;66.17
71149;BME280;59072;42.144;25.200;2023-05-02T00:17:34;100605.53;;;11.86;65.65
71149;BME280;59072;42.144;25.200;2023-05-02T00:20:00;100605.31;;;11.94;64.57
71149;BME280;59072;42.144;25.200;2023-05-02T00:22:25;100607.72;;;12.02;64.35
71149;BME280;59072;42.144;25.200;2023-05-02T00:25:00;100604.91;;;11.84;64.72
71149;BME280;59072;42.144;25.200;2023-05-02T00:27:25;100614.53;;;11.98;64.22
71149;BME280;59072;42.144;25.200;2023-05-02T00:29:52;100612.00;;;11.58;65.56
71149;BME280;59072;42.144;25.200;2023-05-02T00:32:18;100615.03;;;11.75;64.55
71149;BME280;59072;42.144;25.200;2023-05-02T00:34:43;100613.22;;;11.62;65.65
71149;BME280;59072;42.144;25.200;2023-05-02T00:37:09;100624.72;;;11.70;64.88
71149;BME280;59072;42.144;25.200;2023-05-02T00:39:34;100606.47;;;11.60;64.96
71149;BME280;59072;42.144;25.200;2023-05-02T00:42:00;100623.94;;;11.56;65.36
71149;BME280;59072;42.144;25.200;2023-05-02T00:44:26;100616.69;;;11.70;64.84
71149;BME280;59072;42.144;25.200;2023-05-02T00:46:55;100617.31;;;11.72;64.76
71149;BME280;59072;42.144;25.200;2023-05-02T00:49:21;100620.25;;;11.50;65.62
71149;BME280;59072;42.144;25.200;2023-05-02T00:51:46;100626.00;;;11.54;66.39
71149;BME280;59072;42.144;25.200;2023-05-02T00:54:12;100623.53;;;11.52;66.62
71149;BME280;59072;42.144;25.200;2023-05-02T00:56:38;100627.72;;;11.35;66.78
71149;BME280;59072;42.144;25.200;2023-05-02T00:59:04;100633.84;;;11.49;66.89
71149;BME280;59072;42.144;25.200;2023-05-02T01:09:21;100631.91;;;11.04;69.24
71149;BME280;59072;42.144;25.200;2023-05-02T01:12:05;100636.88;;;10.87;69.91
71149;BME280;59072;42.144;25.200;2023-05-02T01:14:40;100620.66;;;10.75;70.45
71149;BME280;59072;42.144;25.200;2023-05-02T01:17:09;100639.72;;;10.92;70.65
71149;BME280;59072;42.144;25.200;2023-05-02T01:19:38;100623.72;;;10.72;70.74
71149;BME280;59072;42.144;25.200;2023-05-02T01:22:07;100631.91;;;10.84;70.67
71149;BME280;59072;42.144;25.200;2023-05-02T01:30:14;100637.25;;;10.64;71.81
71149;BME280;59072;42.144;25.200;2023-05-02T01:32:44;100639.72;;;10.65;70.78
71149;BME280;59072;42.144;25.200;2023-05-02T01:35:13;100641.75;;;10.97;69.66
71149;BME280;59072;42.144;25.200;2023-05-02T01:37:42;100635.19;;;10.93;69.54
71149;BME280;59072;42.144;25.200;2023-05-02T01:40:09;100646.31;;;10.63;71.72
71149;BME280;59072;42.144;25.200;2023-05-02T01:42:37;100646.69;;;10.60;72.33
71149;BME280;59072;42.144;25.200;2023-05-02T01:45:05;100644.63;;;10.42;73.89
71149;BME280;59072;42.144;25.200;2023-05-02T01:47:32;100644.78;;;10.27;74.62
71149;BME280;59072;42.144;25.200;2023-05-02T01:50:02;100632.34;;;10.34;74.48
71149;BME280;59072;42.144;25.200;2023-05-02T01:52:28;100638.63;;;10.26;74.25
71149;BME280;59072;42.144;25.200;2023-05-02T01:54:56;100639.41;;;10.00;75.07
71149;BME280;59072;42.144;25.200;2023-05-02T01:57:24;100636.72;;;10.00;75.53
71149;BME280;59072;42.144;25.200;2023-05-02T01:59:49;100632.03;;;10.09;75.20
71149;BME280;59072;42.144;25.200;2023-05-02T02:02:16;100634.63;;;9.82;75.85
71149;BME280;59072;42.144;25.200;2023-05-02T02:04:43;100637.16;;;9.97;74.92
71149;BME280;59072;42.144;25.200;2023-05-02T02:07:12;100620.53;;;9.95;74.38
71149;BME280;59072;42.144;25.200;2023-05-02T02:09:38;100626.09;;;10.07;73.69
71149;BME280;59072;42.144;25.200;2023-05-02T02:12:11;100617.88;;;9.95;73.23
71149;BME280;59072;42.144;25.200;2023-05-02T02:14:41;100625.63;;;9.90;73.45
71149;BME280;59072;42.144;25.200;2023-05-02T02:17:15;100632.19;;;9.81;73.03
71149;BME280;59072;42.144;25.200;2023-05-02T02:19:46;100631.19;;;9.95;72.50
71149;BME280;59072;42.144;25.200;2023-05-02T02:22:13;100644.16;;;10.12;72.12
71149;BME280;59072;42.144;25.200;2023-05-02T02:24:40;100642.72;;;10.29;70.88
71149;BME280;59072;42.144;25.200;2023-05-02T02:27:05;100650.56;;;10.31;70.39
71149;BME280;59072;42.144;25.200;2023-05-02T02:29:31;100655.81;;;10.11;72.33
71149;BME280;59072;42.144;25.200;2023-05-02T02:31:57;100646.75;;;9.92;73.58
71149;BME280;59072;42.144;25.200;2023-05-02T02:34:22;100648.16;;;9.81;74.69
71149;BME280;59072;42.144;25.200;2023-05-02T02:37:03;100649.00;;;9.88;73.93
71149;BME280;59072;42.144;25.200;2023-05-02T02:39:59;100644.47;;;9.82;74.97
71149;BME280;59072;42.144;25.200;2023-05-02T02:45:33;100646.09;;;9.35;78.18
71149;BME280;59072;42.144;25.200;2023-05-02T02:48:23;100645.75;;;9.44;78.06
71149;BME280;59072;42.144;25.200;2023-05-02T02:53:33;100637.28;;;9.28;79.12
71149;BME280;59072;42.144;25.200;2023-05-02T02:56:06;100634.34;;;9.57;77.61
71149;BME280;59072;42.144;25.200;2023-05-02T02:58:46;100626.13;;;9.17;79.39
71149;BME280;59072;42.144;25.200;2023-05-02T03:01:19;100629.63;;;9.18;80.19
71149;BME280;59072;42.144;25.200;2023-05-02T03:03:47;100630.06;;;9.21;79.90
71149;BME280;59072;42.144;25.200;2023-05-02T03:06:14;100641.69;;;9.14;80.34
71149;BME280;59072;42.144;25.200;2023-05-02T03:08:41;100662.09;;;9.41;78.96
71149;BME280;59072;42.144;25.200;2023-05-02T03:11:07;100654.78;;;9.15;80.21
71149;BME280;59072;42.144;25.200;2023-05-02T03:13:34;100647.31;;;8.97;80.41
71149;BME280;59072;42.144;25.200;2023-05-02T03:16:30;100663.38;;;9.17;79.59
71149;BME280;59072;42.144;25.200;2023-05-02T03:18:56;100659.53;;;8.92;81.36
71149;BME280;59072;42.144;25.200;2023-05-02T03:21:22;100660.69;;;8.82;81.30
71149;BME280;59072;42.144;25.200;2023-05-02T03:23:47;100661.72;;;8.60;82.35
71149;BME280;59072;42.144;25.200;2023-05-02T03:26:13;100666.28;;;8.66;81.94
71149;BME280;59072;42.144;25.200;2023-05-02T03:28:38;100661.22;;;8.50;82.65
71149;BME280;59072;42.144;25.200;2023-05-02T03:31:04;100671.09;;;8.56;83.13
71149;BME280;59072;42.144;25.200;2023-05-02T03:33:29;100670.97;;;8.42;83.60
71149;BME280;59072;42.144;25.200;2023-05-02T03:35:55;100673.50;;;8.51;84.02
71149;BME280;59072;42.144;25.200;2023-05-02T03:38:20;100679.84;;;8.71;82.95
71149;BME280;59072;42.144;25.200;2023-05-02T03:40:46;100686.78;;;8.72;82.85
71149;BME280;59072;42.144;25.200;2023-05-02T03:43:11;100695.19;;;8.97;81.63
71149;BME280;59072;42.144;25.200;2023-05-02T03:45:36;100702.66;;;9.15;80.16
71149;BME280;59072;42.144;25.200;2023-05-02T03:48:02;100687.31;;;9.45;78.65
71149;BME280;59072;42.144;25.200;2023-05-02T03:50:27;100707.25;;;9.21;80.32
71149;BME280;59072;42.144;25.200;2023-05-02T03:52:53;100712.75;;;9.20;80.72
71149;BME280;59072;42.144;25.200;2023-05-02T03:55:18;100724.16;;;9.14;80.90
71149;BME280;59072;42.144;25.200;2023-05-02T03:57:44;100715.75;;;9.10;81.78
71149;BME280;59072;42.144;25.200;2023-05-02T04:00:10;100719.00;;;9.34;80.54
71149;BME280;59072;42.144;25.200;2023-05-02T04:02:35;100725.53;;;9.66;78.83
71149;BME280;59072;42.144;25.200;2023-05-02T04:05:01;100726.56;;;9.37;80.82
71149;BME280;59072;42.144;25.200;2023-05-02T04:07:26;100732.19;;;9.20;85.21
71149;BME280;59072;42.144;25.200;2023-05-02T04:09:52;100734.50;;;9.23;89.67
71149;BME280;59072;42.144;25.200;2023-05-02T04:12:18;100724.16;;;9.14;92.05
71149;BME280;59072;42.144;25.200;2023-05-02T04:14:44;100730.94;;;9.44;90.63
71149;BME280;59072;42.144;25.200;2023-05-02T04:17:10;100717.91;;;9.56;90.27
71149;BME280;59072;42.144;25.200;2023-05-02T04:19:35;100725.59;;;9.79;88.20
71149;BME280;59072;42.144;25.200;2023-05-02T04:22:01;100723.69;;;9.67;88.73
71149;BME280;59072;42.144;25.200;2023-05-02T04:24:27;100723.16;;;9.84;87.80
71149;BME280;59072;42.144;25.200;2023-05-02T04:26:53;100724.56;;;9.80;88.16
71149;BME280;59072;42.144;25.200;2023-05-02T04:29:19;100723.03;;;9.99;86.84
71149;BME280;59072;42.144;25.200;2023-05-02T04:31:44;100720.75;;;9.96;86.08
71149;BME280;59072;42.144;25.200;2023-05-02T04:34:10;100724.47;;;10.02;86.02
71149;BME280;59072;42.144;25.200;2023-05-02T04:36:36;100736.41;;;10.19;83.17
71149;BME280;59072;42.144;25.200;2023-05-02T04:39:02;100733.91;;;10.11;84.22
71149;BME280;59072;42.144;25.200;2023-05-02T04:41:28;100715.31;;;10.18;83.31
71149;BME280;59072;42.144;25.200;2023-05-02T04:43:54;100722.16;;;10.40;83.11
71149;BME280;59072;42.144;25.200;2023-05-02T04:46:19;100724.59;;;10.35;81.94
71149;BME280;59072;42.144;25.200;2023-05-02T04:48:45;100734.69;;;10.47;81.71
71149;BME280;59072;42.144;25.200;2023-05-02T04:51:10;100730.00;;;10.62;81.03
71149;BME280;59072;42.144;25.200;2023-05-02T04:53:36;100729.00;;;10.76;80.48
71149;BME280;59072;42.144;25.200;2023-05-02T04:56:02;100727.97;;;10.91;78.22
71149;BME280;59072;42.144;25.200;2023-05-02T04:58:27;100729.44;;;11.20;77.05
71149;BME280;59072;42.144;25.200;2023-05-02T05:00:53;100739.25;;;11.19;74.43
71149;BME280;59072;42.144;25.200;2023-05-02T05:03:19;100740.50;;;11.23;75.04
71149;BME280;59072;42.144;25.200;2023-05-02T05:05:45;100727.53;;;11.47;72.03
71149;BME280;59072;42.144;25.200;2023-05-02T05:08:11;100741.50;;;11.49;72.84
71149;BME280;59072;42.144;25.200;2023-05-02T05:10:36;100749.44;;;11.76;72.39
71149;BME280;59072;42.144;25.200;2023-05-02T05:13:02;100749.88;;;11.79;72.29
71149;BME280;59072;42.144;25.200;2023-05-02T05:15:28;100747.63;;;12.35;70.88
71149;BME280;59072;42.144;25.200;2023-05-02T05:17:54;100748.44;;;12.35;70.28
71149;BME280;59072;42.144;25.200;2023-05-02T05:20:19;100745.50;;;12.43;69.99
71149;BME280;59072;42.144;25.200;2023-05-02T05:22:45;100737.53;;;12.37;68.94
71149;BME280;59072;42.144;25.200;2023-05-02T05:25:10;100743.97;;;12.61;69.19
71149;BME280;59072;42.144;25.200;2023-05-02T05:27:36;100736.63;;;12.50;68.13
71149;BME280;59072;42.144;25.200;2023-05-02T05:30:03;100750.13;;;12.61;70.25
71149;BME280;59072;42.144;25.200;2023-05-02T05:32:29;100744.22;;;13.10;69.94
71149;BME280;59072;42.144;25.200;2023-05-02T05:34:54;100751.81;;;13.13;66.65
71149;BME280;59072;42.144;25.200;2023-05-02T05:37:20;100752.53;;;13.26;66.76
71149;BME280;59072;42.144;25.200;2023-05-02T05:39:46;100758.91;;;13.25;64.27
71149;BME280;59072;42.144;25.200;2023-05-02T05:42:12;100766.03;;;13.63;64.21
71149;BME280;59072;42.144;25.200;2023-05-02T05:44:38;100757.53;;;13.85;62.20
71149;BME280;59072;42.144;25.200;2023-05-02T05:47:04;100763.78;;;13.97;61.68
71149;BME280;59072;42.144;25.200;2023-05-02T05:49:29;100768.81;;;13.94;64.17
71149;BME280;59072;42.144;25.200;2023-05-02T05:51:55;100772.69;;;13.98;60.78
71149;BME280;59072;42.144;25.200;2023-05-02T05:54:21;100781.19;;;14.43;61.69
71149;BME280;59072;42.144;25.200;2023-05-02T05:56:46;100776.59;;;14.62;58.94
71149;BME280;59072;42.144;25.200;2023-05-02T05:59:12;100781.00;;;14.75;59.07
71149;BME280;59072;42.144;25.200;2023-05-02T06:01:38;100766.25;;;14.66;58.86
71149;BME280;59072;42.144;25.200;2023-05-02T06:04:03;100778.63;;;14.67;58.53
71149;BME280;59072;42.144;25.200;2023-05-02T06:06:29;100780.78;;;14.89;58.41
71149;BME280;59072;42.144;25.200;2023-05-02T06:08:56;100791.69;;;15.17;53.98
71149;BME280;59072;42.144;25.200;2023-05-02T06:11:22;100784.94;;;15.15;54.15
71149;BME280;59072;42.144;25.200;2023-05-02T06:13:50;100791.25;;;15.20;51.15
71149;BME280;59072;42.144;25.200;2023-05-02T06:16:15;100782.72;;;15.23;50.24
71149;BME280;59072;42.144;25.200;2023-05-02T06:18:42;100789.63;;;15.55;49.83
71149;BME280;59072;42.144;25.200;2023-05-02T06:21:08;100781.22;;;15.51;50.52
71149;BME280;59072;42.144;25.200;2023-05-02T06:23:33;100787.19;;;15.77;50.56
71149;BME280;59072;42.144;25.200;2023-05-02T06:25:59;100788.09;;;15.94;50.04
71149;BME280;59072;42.144;25.200;2023-05-02T06:28:25;100787.38;;;16.11;50.93
71149;BME280;59072;42.144;25.200;2023-05-02T06:31:09;100791.44;;;16.25;46.03
71149;BME280;59072;42.144;25.200;2023-05-02T06:33:34;100794.50;;;16.17;48.89
71149;BME280;59072;42.144;25.200;2023-05-02T06:36:01;100789.91;;;16.58;47.32
71149;BME280;59072;42.144;25.200;2023-05-02T06:38:27;100783.75;;;16.45;51.41
71149;BME280;59072;42.144;25.200;2023-05-02T06:40:52;100781.50;;;16.71;48.49
71149;BME280;59072;42.144;25.200;2023-05-02T06:43:18;100787.28;;;16.92;47.69
71149;BME280;59072;42.144;25.200;2023-05-02T06:45:43;100785.25;;;16.99;45.88
71149;BME280;59072;42.144;25.200;2023-05-02T06:48:09;100774.00;;;16.73;44.06
71149;BME280;59072;42.144;25.200;2023-05-02T06:50:35;100789.75;;;16.93;44.43
71149;BME280;59072;42.144;25.200;2023-05-02T06:53:01;100796.78;;;17.11;40.84
71149;BME280;59072;42.144;25.200;2023-05-02T06:55:27;100776.38;;;17.15;40.89
71149;BME280;59072;42.144;25.200;2023-05-02T06:57:53;100793.81;;;16.96;40.00
71149;BME280;59072;42.144;25.200;2023-05-02T07:00:19;100790.41;;;17.17;44.19
71149;BME280;59072;42.144;25.200;2023-05-02T07:02:46;100791.16;;;17.30;40.32
71149;BME280;59072;42.144;25.200;2023-05-02T07:05:12;100789.94;;;17.37;40.13
71149;BME280;59072;42.144;25.200;2023-05-02T07:07:43;100793.91;;;17.52;39.19
71149;BME280;59072;42.144;25.200;2023-05-02T07:10:09;100799.69;;;17.60;39.61
71149;BME280;59072;42.144;25.200;2023-05-02T07:12:35;100784.41;;;17.83;40.38
71149;BME280;59072;42.144;25.200;2023-05-02T07:15:00;100799.16;;;18.19;39.43
71149;BME280;59072;42.144;25.200;2023-05-02T07:17:26;100802.31;;;18.33;36.52
71149;BME280;59072;42.144;25.200;2023-05-02T07:19:51;100792.28;;;18.06;38.81
71149;BME280;59072;42.144;25.200;2023-05-02T07:22:17;100799.38;;;18.13;37.77
71149;BME280;59072;42.144;25.200;2023-05-02T07:24:43;100800.28;;;18.01;35.63
71149;BME280;59072;42.144;25.200;2023-05-02T07:27:09;100801.94;;;18.02;36.20
71149;BME280;59072;42.144;25.200;2023-05-02T07:29:34;100787.31;;;17.98;34.59
71149;BME280;59072;42.144;25.200;2023-05-02T07:32:00;100797.97;;;18.10;33.26
71149;BME280;59072;42.144;25.200;2023-05-02T07:34:25;100792.31;;;18.12;36.02
71149;BME280;59072;42.144;25.200;2023-05-02T07:36:51;100799.53;;;18.28;34.86
71149;BME280;59072;42.144;25.200;2023-05-02T07:39:16;100798.63;;;18.44;34.22
71149;BME280;59072;42.144;25.200;2023-05-02T07:41:41;100783.97;;;18.35;34.39
71149;BME280;59072;42.144;25.200;2023-05-02T07:44:07;100804.81;;;18.18;33.69
71149;BME280;59072;42.144;25.200;2023-05-02T07:46:32;100798.53;;;18.34;35.60
71149;BME280;59072;42.144;25.200;2023-05-02T07:48:58;100807.50;;;18.18;35.67
71149;BME280;59072;42.144;25.200;2023-05-02T07:51:24;100800.19;;;18.90;34.64
71149;BME280;59072;42.144;25.200;2023-05-02T07:53:50;100799.00;;;19.07;34.20
71149;BME280;59072;42.144;25.200;2023-05-02T07:56:23;100798.38;;;19.27;33.28
71149;BME280;59072;42.144;25.200;2023-05-02T07:58:48;100785.00;;;18.83;32.80
71149;BME280;59072;42.144;25.200;2023-05-02T08:01:15;100795.25;;;18.81;33.25
71149;BME280;59072;42.144;25.200;2023-05-02T08:03:41;100797.56;;;18.95;33.73
71149;BME280;59072;42.144;25.200;2023-05-02T08:06:06;100780.22;;;19.23;33.29
71149;BME280;59072;42.144;25.200;2023-05-02T08:08:33;100796.78;;;19.37;34.66
71149;BME280;59072;42.144;25.200;2023-05-02T08:10:58;100774.47;;;19.14;34.16
71149;BME280;59072;42.144;25.200;2023-05-02T08:13:24;100803.38;;;19.51;33.05
71149;BME280;59072;42.144;25.200;2023-05-02T08:15:50;100795.94;;;19.68;33.81
71149;BME280;59072;42.144;25.200;2023-05-02T08:18:15;100788.75;;;19.84;35.04
71149;BME280;59072;42.144;25.200;2023-05-02T08:20:42;100781.25;;;19.59;34.13
71149;BME280;59072;42.144;25.200;2023-05-02T08:23:07;100786.25;;;19.73;33.68
71149;BME280;59072;42.144;25.200;2023-05-02T08:25:33;100793.19;;;19.63;33.34
71149;BME280;59072;42.144;25.200;2023-05-02T08:27:58;100786.41;;;19.56;36.01
71149;BME280;59072;42.144;25.200;2023-05-02T08:30:23;100784.44;;;19.46;33.83
71149;BME280;59072;42.144;25.200;2023-05-02T08:32:49;100783.59;;;19.78;33.92
71149;BME280;59072;42.144;25.200;2023-05-02T08:35:14;100772.22;;;19.81;34.02
71149;BME280;59072;42.144;25.200;2023-05-02T08:37:40;100777.81;;;20.32;33.75
71149;BME280;59072;42.144;25.200;2023-05-02T08:40:10;100773.81;;;20.50;33.17
71149;BME280;59072;42.144;25.200;2023-05-02T08:42:36;100776.66;;;20.02;33.47
71149;BME280;59072;42.144;25.200;2023-05-02T08:45:07;100759.22;;;19.83;34.79
71149;BME280;59072;42.144;25.200;2023-05-02T08:47:33;100775.81;;;19.97;33.45
71149;BME280;59072;42.144;25.200;2023-05-02T08:49:59;100773.50;;;20.36;34.50
71149;BME280;59072;42.144;25.200;2023-05-02T08:52:25;100779.47;;;20.33;34.09
71149;BME280;59072;42.144;25.200;2023-05-02T08:54:52;100773.31;;;20.58;33.34
71149;BME280;59072;42.144;25.200;2023-05-02T08:57:18;100767.63;;;20.60;32.47
71149;BME280;59072;42.144;25.200;2023-05-02T08:59:44;100769.81;;;21.04;32.17
71149;BME280;59072;42.144;25.200;2023-05-02T09:05:22;100769.84;;;20.89;33.89
71149;BME280;59072;42.144;25.200;2023-05-02T09:07:50;100757.91;;;21.05;33.76
71149;BME280;59072;42.144;25.200;2023-05-02T09:10:15;100767.09;;;21.35;33.34
71149;BME280;59072;42.144;25.200;2023-05-02T09:12:41;100745.41;;;21.14;32.42
71149;BME280;59072;42.144;25.200;2023-05-02T09:15:14;100761.72;;;20.99;30.54
71149;BME280;59072;42.144;25.200;2023-05-02T09:17:43;100769.22;;;21.63;31.50
71149;BME280;59072;42.144;25.200;2023-05-02T09:20:10;100755.97;;;21.41;31.02
71149;BME280;59072;42.144;25.200;2023-05-02T09:22:36;100758.88;;;21.81;31.68
71149;BME280;59072;42.144;25.200;2023-05-02T09:25:04;100751.88;;;21.39;31.22
71149;BME280;59072;42.144;25.200;2023-05-02T09:27:47;100732.94;;;21.23;31.95
71149;BME280;59072;42.144;25.200;2023-05-02T09:30:21;100745.91;;;21.57;32.88
71149;BME280;59072;42.144;25.200;2023-05-02T09:32:47;100751.31;;;21.62;31.98
71149;BME280;59072;42.144;25.200;2023-05-02T09:35:16;100729.84;;;22.31;31.94
71149;BME280;59072;42.144;25.200;2023-05-02T09:37:56;100731.63;;;22.01;31.76
71149;BME280;59072;42.144;25.200;2023-05-02T09:40:23;100734.41;;;21.86;30.92
71149;BME280;59072;42.144;25.200;2023-05-02T09:42:49;100732.78;;;21.80;29.96
71149;BME280;59072;42.144;25.200;2023-05-02T09:45:24;100723.06;;;22.34;28.36
71149;BME280;59072;42.144;25.200;2023-05-02T09:47:51;100714.75;;;22.04;28.13
71149;BME280;59072;42.144;25.200;2023-05-02T09:50:43;100726.69;;;22.08;29.23
71149;BME280;59072;42.144;25.200;2023-05-02T09:53:08;100723.59;;;21.76;28.53
71149;BME280;59072;42.144;25.200;2023-05-02T09:55:35;100714.28;;;21.97;28.97
71149;BME280;59072;42.144;25.200;2023-05-02T09:58:01;100721.34;;;22.43;28.63
71149;BME280;59072;42.144;25.200;2023-05-02T10:03:07;100711.81;;;22.51;28.76
71149;BME280;59072;42.144;25.200;2023-05-02T10:05:35;100716.59;;;23.27;27.24
71149;BME280;59072;42.144;25.200;2023-05-02T10:08:06;100717.66;;;22.68;26.30
71149;BME280;59072;42.144;25.200;2023-05-02T10:10:35;100698.13;;;23.24;29.44
71149;BME280;59072;42.144;25.200;2023-05-02T10:13:03;100688.44;;;22.50;27.15
71149;BME280;59072;42.144;25.200;2023-05-02T10:15:30;100691.56;;;22.67;27.59
71149;BME280;59072;42.144;25.200;2023-05-02T10:17:57;100704.09;;;22.63;27.72
71149;BME280;59072;42.144;25.200;2023-05-02T10:20:25;100694.00;;;22.29;26.58
71149;BME280;59072;42.144;25.200;2023-05-02T10:22:55;100707.44;;;22.84;24.63
71149;BME280;59072;42.144;25.200;2023-05-02T10:25:22;100694.19;;;23.12;25.39
71149;BME280;59072;42.144;25.200;2023-05-02T10:27:48;100688.63;;;23.22;24.01
71149;BME280;59072;42.144;25.200;2023-05-02T10:30:14;100692.56;;;23.59;23.44
71149;BME280;59072;42.144;25.200;2023-05-02T10:32:40;100690.84;;;23.44;23.45
71149;BME280;59072;42.144;25.200;2023-05-02T10:35:07;100694.78;;;23.81;24.11
71149;BME280;59072;42.144;25.200;2023-05-02T10:37:35;100677.13;;;23.54;23.23
71149;BME280;59072;42.144;25.200;2023-05-02T10:40:02;100674.97;;;23.94;24.03
71149;BME280;59072;42.144;25.200;2023-05-02T10:42:30;100694.28;;;23.74;24.49
71149;BME280;59072;42.144;25.200;2023-05-02T10:44:56;100683.75;;;24.29;24.75
71149;BME280;59072;42.144;25.200;2023-05-02T10:47:23;100688.00;;;24.35;23.04
71149;BME280;59072;42.144;25.200;2023-05-02T10:50:00;100679.56;;;23.32;23.55
71149;BME280;59072;42.144;25.200;2023-05-02T10:52:30;100680.94;;;24.34;23.09
71149;BME280;59072;42.144;25.200;2023-05-02T10:55:14;100688.91;;;24.12;22.57
71149;BME280;59072;42.144;25.200;2023-05-02T11:00:25;100678.72;;;23.55;24.57
71149;BME280;59072;42.144;25.200;2023-05-02T11:02:51;100678.53;;;23.71;24.43
71149;BME280;59072;42.144;25.200;2023-05-02T11:05:16;100668.28;;;23.86;25.04
71149;BME280;59072;42.144;25.200;2023-05-02T11:07:42;100683.00;;;24.04;24.88
71149;BME280;59072;42.144;25.200;2023-05-02T11:13:00;100665.41;;;24.16;26.72
71149;BME280;59072;42.144;25.200;2023-05-02T11:18:07;100665.81;;;25.08;23.02
71149;BME280;59072;42.144;25.200;2023-05-02T11:20:34;100673.69;;;24.95;24.19
71149;BME280;59072;42.144;25.200;2023-05-02T11:25:42;100656.19;;;24.96;23.57
71149;BME280;59072;42.144;25.200;2023-05-02T11:33:59;100664.53;;;24.72;24.00
71149;BME280;59072;42.144;25.200;2023-05-02T11:36:34;100659.38;;;25.17;24.03
71149;BME280;59072;42.144;25.200;2023-05-02T11:39:00;100653.97;;;24.98;24.11
71149;BME280;59072;42.144;25.200;2023-05-02T11:44:05;100646.00;;;25.71;23.49
71149;BME280;59072;42.144;25.200;2023-05-02T11:46:30;100652.31;;;25.44;23.29
71149;BME280;59072;42.144;25.200;2023-05-02T11:48:56;100644.28;;;25.61;24.29
71149;BME280;59072;42.144;25.200;2023-05-02T11:51:22;100630.44;;;25.58;24.13
71149;BME280;59072;42.144;25.200;2023-05-02T11:53:47;100633.13;;;25.21;22.51
71149;BME280;59072;42.144;25.200;2023-05-02T11:56:13;100634.72;;;25.50;22.38
71149;BME280;59072;42.144;25.200;2023-05-02T11:58:39;100619.97;;;25.23;23.38
71149;BME280;59072;42.144;25.200;2023-05-02T12:01:15;100605.53;;;24.43;24.17
71149;BME280;59072;42.144;25.200;2023-05-02T12:03:41;100616.06;;;24.69;23.61
71149;BME280;59072;42.144;25.200;2023-05-02T12:06:12;100603.13;;;24.42;24.29
71149;BME280;59072;42.144;25.200;2023-05-02T12:08:39;100607.16;;;24.12;23.88
71149;BME280;59072;42.144;25.200;2023-05-02T12:11:04;100597.28;;;24.16;24.01
71149;BME280;59072;42.144;25.200;2023-05-02T12:13:31;100601.47;;;24.60;23.47
71149;BME280;59072;42.144;25.200;2023-05-02T12:15:57;100601.53;;;25.01;24.46
71149;BME280;59072;42.144;25.200;2023-05-02T12:18:23;100598.56;;;24.37;23.70
71149;BME280;59072;42.144;25.200;2023-05-02T12:20:54;100585.94;;;24.74;24.02
71149;BME280;59072;42.144;25.200;2023-05-02T12:23:21;100601.34;;;24.98;23.75
71149;BME280;59072;42.144;25.200;2023-05-02T12:25:47;100599.31;;;25.17;21.92
71149;BME280;59072;42.144;25.200;2023-05-02T12:28:13;100600.13;;;25.04;23.01
71149;BME280;59072;42.144;25.200;2023-05-02T12:30:39;100592.34;;;25.39;22.35
71149;BME280;59072;42.144;25.200;2023-05-02T12:33:05;100582.59;;;25.60;22.23
71149;BME280;59072;42.144;25.200;2023-05-02T12:35:32;100598.41;;;26.00;21.99
71149;BME280;59072;42.144;25.200;2023-05-02T12:40:35;100585.63;;;25.59;22.60
71149;BME280;59072;42.144;25.200;2023-05-02T12:43:02;100581.19;;;25.99;22.30
71149;BME280;59072;42.144;25.200;2023-05-02T12:45:29;100565.22;;;24.59;23.02
71149;BME280;59072;42.144;25.200;2023-05-02T12:48:01;100577.31;;;25.28;22.76
71149;BME280;59072;42.144;25.200;2023-05-02T12:50:37;100558.28;;;25.22;23.09
71149;BME280;59072;42.144;25.200;2023-05-02T12:53:02;100538.59;;;24.98;22.32
71149;BME280;59072;42.144;25.200;2023-05-02T12:55:28;100543.31;;;25.06;22.03
71149;BME280;59072;42.144;25.200;2023-05-02T12:58:04;100533.19;;;25.48;22.54
71149;BME280;59072;42.144;25.200;2023-05-02T13:00:30;100552.41;;;25.29;22.04
71149;BME280;59072;42.144;25.200;2023-05-02T13:02:56;100522.22;;;24.23;22.69
71149;BME280;59072;42.144;25.200;2023-05-02T13:05:22;100536.63;;;25.40;22.56
71149;BME280;59072;42.144;25.200;2023-05-02T13:07:48;100513.81;;;24.80;22.76
71149;BME280;59072;42.144;25.200;2023-05-02T13:10:13;100525.53;;;25.22;24.01
71149;BME280;59072;42.144;25.200;2023-05-02T13:12:42;100536.34;;;25.64;22.25
71149;BME280;59072;42.144;25.200;2023-05-02T13:15:07;100527.25;;;25.69;22.88
71149;BME280;59072;42.144;25.200;2023-05-02T13:17:34;100523.06;;;26.08;22.53
71149;BME280;59072;42.144;25.200;2023-05-02T13:20:00;100506.53;;;25.54;23.43
71149;BME280;59072;42.144;25.200;2023-05-02T13:22:26;100519.56;;;25.71;22.42
71149;BME280;59072;42.144;25.200;2023-05-02T13:24:52;100518.72;;;25.70;22.45
71149;BME280;59072;42.144;25.200;2023-05-02T13:27:17;100523.94;;;25.58;23.18
71149;BME280;59072;42.144;25.200;2023-05-02T13:29:45;100521.28;;;25.16;23.89